Flight Track Log - Related Links

Times and Time Zones

All times are in EDT time to prevent confusion due to time zone crossing. See the ASQ6045 flight status page for this flight to view local times or setup timezone preferences in your user account.

Time Position Orientation Groundspeed Altitude Reporting Facility
EDT Latitude Longitude Course Direction KTS MPH feet Rate Location/Type
Mon 12:10:32 PM 36.1481 -95.8747 168° South 177 204 2,800  Level Kansas City Center
Mon 12:11:01 PM 36.1539 -95.8364 79° East 243 280 3,400 1,672 Climbing Kansas City Center
Mon 12:11:33 PM 36.1731 -95.7989 58° Northeast 289 333 4,500 2,177 Climbing Kansas City Center
Mon 12:13:05 PM 36.2369 -95.6717 58° Northeast 283 326 7,900 2,104 Climbing Kansas City Center
Mon 12:14:07 PM 36.2797 -95.5853 58° Northeast 291 335 9,900 1,694 Climbing Kansas City Center
Mon 12:15:09 PM 36.3253 -95.4931 58° Northeast 308 354 11,400 1,355 Climbing Kansas City Center
Mon 12:16:11 PM 36.3833 -95.3750 59° Northeast 342 394 12,700 1,210 Climbing Kansas City Center
Mon 12:17:13 PM 36.4367 -95.2694 58° Northeast 363 418 13,900 1,161 Climbing Kansas City Center
Mon 12:18:15 PM 36.4894 -95.1617 59° Northeast 377 434 15,100 1,161 Climbing Kansas City Center
Mon 12:19:17 PM 36.5483 -95.0419 58° Northeast 384 442 16,300 1,161 Climbing Kansas City Center
Mon 12:20:19 PM 36.6033 -94.9286 59° Northeast 385 443 17,500 1,073 Climbing Kansas City Center
Mon 12:21:20 PM 36.6581 -94.8172 58° Northeast 379 436 18,500 1,220 Climbing Kansas City Center
Mon 12:22:22 PM 36.7256 -94.6789 59° Northeast 385 443 20,000 1,258 Climbing Kansas City Center
Mon 12:23:24 PM 36.7822 -94.5603 59° Northeast 393 452 21,100 1,065 Climbing Kansas City Center
Mon 12:24:26 PM 36.8408 -94.4403 59° Northeast 401 461 22,200 968 Climbing Kansas City Center
Mon 12:25:28 PM 36.9308 -94.3514 38° Northeast 410 472 23,100 823 Climbing Kansas City Center
Mon 12:26:30 PM 37.0208 -94.2625 38° Northeast 412 474 23,900 774 Climbing Kansas City Center
Mon 12:27:32 PM 37.1125 -94.1706 39° Northeast 419 482 24,700 823 Climbing Kansas City Center
Mon 12:28:34 PM 37.1731 -94.0094 65° Northeast 443 510 25,600 823 Climbing Kansas City Center
Mon 12:29:36 PM 37.2250 -93.8647 66° East 451 519 26,400 774 Climbing Kansas City Center
Mon 12:30:38 PM 37.2775 -93.7194 66° East 454 522 27,200 823 Climbing Kansas City Center
Mon 12:31:40 PM 37.3361 -93.5758 63° Northeast 459 528 28,100 829 Climbing Kansas City Center
Mon 12:32:41 PM 37.3942 -93.4306 63° Northeast 463 533 28,900 780 Climbing Kansas City Center
Mon 12:33:43 PM 37.4533 -93.2822 63° Northeast 469 540 29,700 871 Climbing Kansas City Center
Mon 12:34:45 PM 37.5581 -93.1444 46° Northeast 457 526 30,700 871 Climbing Kansas City Center
Mon 12:35:47 PM 37.6753 -93.0889 21° North 445 512 31,500 774 Climbing Kansas City Center
Mon 12:36:49 PM 37.7917 -93.0292 22° Northeast 447 514 32,300 726 Climbing Kansas City Center
Mon 12:37:51 PM 37.9031 -92.9478 30° Northeast 454 522 33,000 339 Climbing Kansas City Center
Mon 12:38:53 PM 38.0094 -92.8406 38° Northeast 469 540 33,000 48 Level Kansas City Center
Mon 12:39:55 PM 38.1194 -92.7294 38° Northeast 487 560 33,100 629 Climbing Kansas City Center
Mon 12:40:57 PM 38.2358 -92.6122 38° Northeast 508 585 34,300 919 Climbing Kansas City Center
Mon 12:41:59 PM 38.3447 -92.4994 39° Northeast 501 577 35,000 341 Climbing Kansas City Center
Mon 12:43:00 PM 38.4544 -92.3886 38° Northeast 500 575 35,000  Level Kansas City Center
Mon 12:44:02 PM 38.5664 -92.2753 38° Northeast 506 582 35,000  Level Kansas City Center
Mon 12:45:04 PM 38.6969 -92.1386 39° Northeast 504 580 35,000  Level Kansas City Center
Mon 12:46:06 PM 38.8047 -92.0286 38° Northeast 497 572 35,000  Level Kansas City Center
Mon 12:47:08 PM 38.9128 -91.9175 39° Northeast 495 570 35,000  Level Kansas City Center
Mon 12:48:10 PM 39.0222 -91.8036 39° Northeast 501 577 35,000  Level Kansas City Center
Mon 12:49:11 PM 39.1328 -91.6881 39° Northeast 507 583 35,000  Level Kansas City Center
Mon 12:50:13 PM 39.2347 -91.5825 39° Northeast 511 588 35,000 -145 Level Kansas City Center
Mon 12:51:15 PM 39.3647 -91.4467 39° Northeast 505 581 34,700 -871 Descending Kansas City Center
Mon 12:52:17 PM 39.4683 -91.3361 39° Northeast 493 567 33,200 -1,306 Descending Kansas City Center
Mon 12:53:19 PM 39.5672 -91.2317 39° Northeast 477 549 32,000 -581 Descending Kansas City Center
Mon 12:54:21 PM 39.6622 -91.1303 39° Northeast 458 527 32,000 -387 Level Kansas City Center
Mon 12:55:23 PM 39.7681 -91.0203 39° Northeast 451 519 31,200 -484 Descending Kansas City Center
Mon 12:56:25 PM 39.8731 -90.9158 37° Northeast 459 528 31,000 -97 Descending Kansas City Center
Mon 12:57:27 PM 39.9756 -90.8128 38° Northeast 464 534 31,000  Level Kansas City Center
Mon 12:58:28 PM 40.0781 -90.7078 38° Northeast 466 536 31,000  Level Kansas City Center
Mon 12:59:32 PM 40.1828 -90.6003 38° Northeast 472 543 31,000  Level Kansas City Center
Mon 01:00:33 PM 40.2903 -90.4933 37° Northeast 481 554 31,000  Level Kansas City Center
Mon 01:01:35 PM 40.4136 -90.3653 38° Northeast 474 545 31,000  Level Kansas City Center
Mon 01:02:11 PM 40.4564 -90.3231 37° Northeast 473 544 31,000  Level Chicago Center
Mon 01:03:13 PM 40.5819 -90.1936 38° Northeast 470 541 31,000  Level Chicago Center
Mon 01:04:15 PM 40.6836 -90.0839 39° Northeast 472 543 31,000 -677 Level Chicago Center
Mon 01:05:17 PM 40.7908 -89.9803 36° Northeast 477 549 29,600 -1,645 Descending Chicago Center
Mon 01:06:19 PM 40.8947 -89.8694 39° Northeast 480 552 27,600 -1,984 Descending Chicago Center
Mon 01:07:21 PM 41.0053 -89.7536 38° Northeast 474 545 25,500 -1,742 Descending Chicago Center
Mon 01:08:23 PM 41.1072 -89.6464 38° Northeast 465 535 24,000 -726 Descending Chicago Center
Mon 01:09:25 PM 41.1881 -89.5239 49° Northeast 439 505 24,000 -1,210 Level Chicago Center
Mon 01:10:27 PM 41.2522 -89.3594 63° Northeast 450 518 21,500 -2,806 Descending Chicago Center
Mon 01:11:29 PM 41.3153 -89.2075 61° Northeast 433 498 18,200 -2,565 Descending Chicago Center
Mon 01:12:31 PM 41.3608 -89.0878 63° Northeast 410 472 16,200 -2,177 Descending Chicago Center
Mon 01:13:33 PM 41.4131 -88.9611 61° Northeast 396 456 13,700 -2,419 Descending Chicago Center
Mon 01:14:35 PM 41.4708 -88.8122 63° Northeast 377 434 11,200 -1,306 Descending Chicago Center
Mon 01:15:37 PM 41.5181 -88.6975 61° Northeast 358 412 11,000 -97 Descending Chicago Center
Mon 01:16:39 PM 41.5569 -88.5961 63° Northeast 315 362 11,000  Level Chicago Center
Mon 01:17:41 PM 41.5917 -88.4953 65° Northeast 302 348 11,000 -677 Level Chicago Center
Mon 01:18:43 PM 41.6225 -88.4119 64° Northeast 262 302 9,600 -1,500 Descending Chicago Center
Mon 01:19:45 PM 41.6539 -88.3339 62° Northeast 242 278 7,900 -1,452 Descending Chicago Center
Mon 01:20:47 PM 41.6869 -88.2531 61° Northeast 211 243 6,600 -1,258 Descending Chicago Center
Mon 01:21:49 PM 41.7119 -88.1925 61° Northeast 191 220 5,300 -1,113 Descending Chicago Center
Mon 01:22:51 PM 41.7500 -88.1397 46° Northeast 194 223 4,300 -629 Descending Chicago Center
Mon 01:23:53 PM 41.7897 -88.0939 41° Northeast 194 223 4,000 -145 Descending Chicago Center
Mon 01:24:55 PM 41.8267 -88.0481 43° Northeast 187 215 4,000 -484 Level Chicago Center
Mon 01:25:57 PM 41.8650 -88.0031 41° Northeast 185 213 3,000 -1,016 Descending Chicago Center
Mon 01:26:59 PM 41.9086 -87.9522 41° Northeast 179 206 1,900 -871 Descending Chicago Center
Mon 01:28:01 PM 41.9336 -87.9231 41° Northeast 146 168 1,200 -677 Descending Chicago Center
Mon 01:30:00 PM 41.9667 -87.9000 37° Northeast  Level FlightAware Approximate

Login

Don't have an account? Register now (free) for customized features, flight alerts, and more!